Time;durP1;ratioP1;P1;durP2;ratioP2;P2;SDS_P1;SDS_P2;PMS_P1;PMS_P2;Temp;Humidity;BMP_temperature;BMP_pressure;BME280_temperature;BME280_humidity;BME280_pressure;Samples;Min_cycle;Max_cycle;Signal;HPM_P1;HPM_P2
2023/05/22 00:00:40;;;;;;;16.95;9.52;;;18.60;99.90;;;;;;4998075;28;20022;-76
2023/05/22 00:03:05;;;;;;;16.35;10.52;;;18.60;99.90;;;;;;4997743;28;20027;-75
2023/05/22 00:05:33;;;;;;;17.45;9.98;;;18.50;99.90;;;;;;4997968;28;20030;-75
2023/05/22 00:07:58;;;;;;;16.90;10.32;;;18.50;99.90;;;;;;4999031;28;20023;-75
2023/05/22 00:10:24;;;;;;;16.63;9.77;;;18.50;99.90;;;;;;4997516;28;20029;-76
2023/05/22 00:12:49;;;;;;;18.42;10.15;;;18.60;99.90;;;;;;4998359;28;20026;-76
2023/05/22 00:15:15;;;;;;;19.05;9.82;;;18.50;99.90;;;;;;4997898;28;20034;-75
2023/05/22 00:17:41;;;;;;;16.55;10.18;;;18.50;99.90;;;;;;4997901;28;20028;-75
2023/05/22 00:20:07;;;;;;;17.15;9.75;;;18.50;99.90;;;;;;4998146;28;20034;-73
2023/05/22 00:22:34;;;;;;;15.13;9.70;;;18.50;99.90;;;;;;4997522;28;20111;-72
2023/05/22 00:25:01;;;;;;;16.92;10.23;;;18.40;99.90;;;;;;4997646;28;20066;-73
2023/05/22 00:27:27;;;;;;;16.35;9.82;;;18.40;99.90;;;;;;4997799;28;20030;-73
2023/05/22 00:29:52;;;;;;;14.32;10.00;;;18.30;99.90;;;;;;4997925;28;20018;-73
2023/05/22 00:32:18;;;;;;;16.58;10.85;;;18.30;99.90;;;;;;4997266;28;20022;-73
2023/05/22 00:34:43;;;;;;;16.10;10.55;;;18.30;99.90;;;;;;4997710;28;20053;-73
2023/05/22 00:37:09;;;;;;;15.45;9.95;;;18.20;99.90;;;;;;4997402;28;20026;-73
2023/05/22 00:39:35;;;;;;;15.77;10.00;;;18.20;99.90;;;;;;4997254;28;20030;-73
2023/05/22 00:42:01;;;;;;;18.23;10.30;;;18.20;99.90;;;;;;4997446;28;20027;-73
2023/05/22 00:44:26;;;;;;;18.52;10.63;;;18.10;99.90;;;;;;4998162;28;20023;-73
2023/05/22 00:46:52;;;;;;;16.13;10.07;;;18.10;99.90;;;;;;4997180;28;20045;-73
2023/05/22 00:49:17;;;;;;;16.88;9.77;;;18.10;99.90;;;;;;4997774;28;20113;-73
2023/05/22 00:51:43;;;;;;;14.35;9.27;;;18.20;99.90;;;;;;4997280;28;20088;-73
2023/05/22 00:54:10;;;;;;;14.77;9.82;;;18.30;99.90;;;;;;4998431;28;20030;-72
2023/05/22 00:56:36;;;;;;;16.95;10.45;;;18.40;99.90;;;;;;4996998;28;20026;-73
2023/05/22 00:59:02;;;;;;;16.60;10.02;;;18.30;99.90;;;;;;4997805;28;20034;-73
2023/05/22 01:01:32;;;;;;;17.88;9.85;;;18.30;99.90;;;;;;4996988;28;20032;-73
2023/05/22 01:04:00;;;;;;;16.08;9.77;;;18.30;99.90;;;;;;4997831;28;20065;-73
2023/05/22 01:06:26;;;;;;;16.20;10.25;;;18.20;99.90;;;;;;4996788;28;20026;-73
2023/05/22 01:08:52;;;;;;;19.50;10.20;;;18.10;99.90;;;;;;4997168;28;20034;-73
2023/05/22 01:11:30;;;;;;;16.58;10.02;;;18.00;99.90;;;;;;4996736;28;20113;-73
2023/05/22 01:14:14;;;;;;;19.75;10.10;;;18.00;99.90;;;;;;4996810;28;20023;-73
2023/05/22 01:17:00;;;;;;;19.00;10.20;;;18.10;99.90;;;;;;4996680;28;20053;-73
2023/05/22 01:19:42;;;;;;;15.18;9.95;;;18.20;99.90;;;;;;4996654;28;20034;-73
2023/05/22 01:22:24;;;;;;;;;;;18.20;99.90;;;;;;4998158;28;20018;-73
2023/05/22 01:25:15;;;;;;;21.63;10.70;;;18.20;99.90;;;;;;4997602;28;19936;-73
2023/05/22 01:28:08;;;;;;;17.42;10.48;;;18.20;99.90;;;;;;4997757;28;20023;-73
2023/05/22 01:30:43;;;;;;;19.70;10.77;;;18.20;99.90;;;;;;4996609;28;20026;-73
2023/05/22 01:33:11;;;;;;;15.38;10.15;;;18.20;99.90;;;;;;4997348;28;20101;-73
2023/05/22 01:35:39;;;;;;;14.85;9.77;;;18.20;99.90;;;;;;4996804;28;20018;-73
2023/05/22 01:38:07;;;;;;;19.70;10.88;;;18.10;99.90;;;;;;4997281;28;20030;-73
2023/05/22 01:40:33;;;;;;;17.58;10.10;;;18.10;99.90;;;;;;4996537;28;20026;-73
2023/05/22 01:43:00;;;;;;;13.90;9.32;;;18.10;99.90;;;;;;4996556;28;20050;-73
2023/05/22 01:45:25;;;;;;;17.17;11.02;;;18.10;99.90;;;;;;4997269;28;20031;-73
2023/05/22 01:47:51;;;;;;;18.52;10.65;;;18.10;99.90;;;;;;4997214;28;20033;-73
2023/05/22 01:50:17;;;;;;;17.25;10.13;;;18.10;99.90;;;;;;4996299;28;20109;-73
2023/05/22 01:53:10;;;;;;;16.15;10.07;;;18.10;99.90;;;;;;4996391;28;20027;-73
2023/05/22 01:55:54;;;;;;;17.35;10.15;;;18.10;99.90;;;;;;4999864;28;20026;-73
2023/05/22 01:58:47;;;;;;;15.80;10.13;;;18.10;99.90;;;;;;4999934;28;20031;-73
2023/05/22 02:01:16;;;;;;;18.95;10.95;;;18.10;99.90;;;;;;5000988;28;20054;-73
2023/05/22 02:03:42;;;;;;;17.92;10.00;;;18.10;99.90;;;;;;5000117;28;20022;-73
2023/05/22 02:06:10;;;;;;;17.73;11.10;;;18.00;99.90;;;;;;5000716;28;20025;-73
2023/05/22 02:08:39;;;;;;;17.23;10.60;;;18.10;99.90;;;;;;4999641;28;20089;-73
2023/05/22 02:11:06;;;;;;;18.05;10.75;;;18.00;99.90;;;;;;4999771;28;20038;-73
2023/05/22 02:13:32;;;;;;;17.38;10.90;;;18.00;99.90;;;;;;4999797;28;20023;-73
2023/05/22 02:15:58;;;;;;;16.88;10.32;;;17.90;99.90;;;;;;4999598;28;20022;-73
2023/05/22 02:18:28;;;;;;;24.45;11.50;;;17.90;99.90;;;;;;4999816;28;20069;-73
2023/05/22 02:20:55;;;;;;;17.63;10.55;;;17.90;99.90;;;;;;4999480;28;20026;-73
2023/05/22 02:23:21;;;;;;;21.10;11.00;;;17.80;99.90;;;;;;4999933;28;20110;-73
2023/05/22 02:25:46;;;;;;;21.15;11.05;;;17.90;99.90;;;;;;4999622;28;20128;-73
2023/05/22 02:28:12;;;;;;;15.57;10.40;;;17.80;99.90;;;;;;4999482;28;20030;-73
2023/05/22 02:30:37;;;;;;;19.45;10.75;;;17.80;99.90;;;;;;5000564;28;20029;-73
2023/05/22 02:33:04;;;;;;;16.45;10.27;;;17.80;99.90;;;;;;4999286;28;20045;-73
2023/05/22 02:35:30;;;;;;;15.88;10.93;;;17.70;99.90;;;;;;5000492;28;20019;-73
2023/05/22 02:37:56;;;;;;;18.17;11.70;;;17.80;99.90;;;;;;4999253;28;20061;-73
2023/05/22 02:40:21;;;;;;;21.17;11.52;;;17.80;99.90;;;;;;4999485;28;20068;-73
2023/05/22 02:42:47;;;;;;;17.77;10.98;;;17.70;99.90;;;;;;4999823;28;20029;-73
2023/05/22 02:45:13;;;;;;;17.50;10.85;;;17.60;99.90;;;;;;4999166;28;20043;-73
2023/05/22 02:47:38;;;;;;;19.73;11.25;;;17.50;99.90;;;;;;4999137;28;20030;-73
2023/05/22 02:50:04;;;;;;;17.33;11.10;;;17.50;99.90;;;;;;4999891;28;20033;-73
2023/05/22 02:52:30;;;;;;;16.40;10.82;;;17.50;99.90;;;;;;4999756;28;20081;-73
2023/05/22 02:54:55;;;;;;;16.85;10.52;;;17.50;99.90;;;;;;4999846;28;20015;-73
2023/05/22 02:57:21;;;;;;;17.63;11.23;;;17.50;99.90;;;;;;4999915;28;20030;-73
2023/05/22 02:59:47;;;;;;;18.77;10.75;;;17.50;99.90;;;;;;4999795;28;20165;-73
2023/05/22 03:02:14;;;;;;;16.92;11.23;;;17.50;99.90;;;;;;4998842;28;20031;-73
2023/05/22 03:04:40;;;;;;;19.55;10.75;;;17.50;99.90;;;;;;4998697;28;20022;-73
2023/05/22 03:07:06;;;;;;;16.85;10.25;;;17.40;99.90;;;;;;4997559;28;20058;-73
2023/05/22 03:09:32;;;;;;;17.98;10.98;;;17.20;99.90;;;;;;4998623;28;20111;-73
2023/05/22 03:11:57;;;;;;;21.55;11.38;;;17.00;99.90;;;;;;4998739;28;20026;-73
2023/05/22 03:14:23;;;;;;;19.17;11.73;;;16.80;99.90;;;;;;4999958;28;20082;-73
2023/05/22 03:16:48;;;;;;;19.77;11.30;;;16.70;99.90;;;;;;4999449;28;20022;-73
2023/05/22 03:19:15;;;;;;;20.70;10.90;;;16.70;99.90;;;;;;4998421;28;20053;-73
2023/05/22 03:21:43;;;;;;;16.38;10.52;;;16.80;99.90;;;;;;4999346;28;20027;-73
2023/05/22 03:24:08;;;;;;;16.10;10.73;;;16.90;99.90;;;;;;4998467;28;20061;-73
2023/05/22 03:26:34;;;;;;;19.05;10.77;;;16.90;99.90;;;;;;4998326;28;20022;-73
2023/05/22 03:29:00;;;;;;;17.58;10.75;;;17.00;99.90;;;;;;4998601;28;20093;-73
2023/05/22 03:31:32;;;;;;;18.75;10.93;;;17.00;99.90;;;;;;4998174;28;20057;-73
2023/05/22 03:33:58;;;;;;;20.63;10.82;;;16.90;99.90;;;;;;4998697;28;20023;-73
2023/05/22 03:36:24;;;;;;;20.20;10.52;;;16.90;99.90;;;;;;4998295;28;20072;-73
2023/05/22 03:38:50;;;;;;;17.50;10.70;;;16.80;99.90;;;;;;4998873;28;20033;-73
2023/05/22 03:41:16;;;;;;;28.30;11.73;;;16.80;99.90;;;;;;4998181;28;20030;-73
2023/05/22 03:43:41;;;;;;;17.25;10.57;;;16.90;99.90;;;;;;4999105;28;20054;-73
2023/05/22 03:46:09;;;;;;;19.33;11.18;;;17.00;99.90;;;;;;4997940;28;20026;-73
2023/05/22 03:48:35;;;;;;;19.20;12.27;;;17.00;99.90;;;;;;4997943;28;20029;-73
2023/05/22 03:51:00;;;;;;;22.13;11.82;;;17.20;99.90;;;;;;4997852;28;20023;-73
2023/05/22 03:53:26;;;;;;;18.48;11.60;;;17.20;99.90;;;;;;4998628;28;20033;-73
2023/05/22 03:55:52;;;;;;;19.58;11.82;;;17.20;99.90;;;;;;4997847;28;20026;-73
2023/05/22 03:58:17;;;;;;;22.20;11.90;;;17.20;99.90;;;;;;4998597;28;20027;-73
2023/05/22 04:00:43;;;;;;;18.90;11.55;;;17.20;99.90;;;;;;4997897;28;20065;-73
2023/05/22 04:03:11;;;;;;;18.38;11.05;;;17.20;99.90;;;;;;4997661;28;20026;-73
2023/05/22 04:05:38;;;;;;;18.50;11.50;;;17.20;99.90;;;;;;4998867;28;20022;-73
2023/05/22 04:08:04;;;;;;;18.25;11.23;;;17.30;99.90;;;;;;4997572;28;20125;-73
2023/05/22 04:10:29;;;;;;;17.13;11.18;;;17.20;99.90;;;;;;4998368;28;20034;-73
2023/05/22 04:12:55;;;;;;;15.50;10.35;;;17.20;99.90;;;;;;4997591;28;20022;-73
2023/05/22 04:15:20;;;;;;;17.30;10.57;;;17.30;99.90;;;;;;4997355;28;20037;-73
2023/05/22 04:17:48;;;;;;;19.05;11.20;;;17.20;99.90;;;;;;4997383;28;20023;-73
2023/05/22 04:20:14;;;;;;;17.75;10.70;;;17.20;99.90;;;;;;4998687;28;20027;-73
2023/05/22 04:22:40;;;;;;;20.70;11.55;;;17.30;99.90;;;;;;4997414;28;20026;-74
2023/05/22 04:25:06;;;;;;;19.17;11.52;;;17.30;99.90;;;;;;4998134;28;20100;-73
2023/05/22 04:27:33;;;;;;;18.80;11.15;;;17.30;99.90;;;;;;4997152;28;20033;-73
2023/05/22 04:29:59;;;;;;;19.58;10.77;;;17.20;99.90;;;;;;4998140;28;20022;-73
2023/05/22 04:32:25;;;;;;;19.65;11.18;;;17.20;99.90;;;;;;4997463;28;20026;-73
2023/05/22 04:34:50;;;;;;;17.77;11.35;;;17.30;99.90;;;;;;4998040;28;20019;-73
2023/05/22 04:37:17;;;;;;;18.08;11.48;;;17.20;99.90;;;;;;4997099;28;20102;-73
2023/05/22 04:39:44;;;;;;;20.00;11.43;;;17.30;99.90;;;;;;4996960;28;20044;-73
2023/05/22 04:42:13;;;;;;;19.10;11.70;;;17.30;99.90;;;;;;4998007;28;20053;-73
2023/05/22 04:44:39;;;;;;;20.52;10.82;;;17.30;99.90;;;;;;4997040;28;20022;-73
2023/05/22 04:47:06;;;;;;;20.13;11.75;;;17.30;99.90;;;;;;4997867;28;20090;-73
2023/05/22 04:49:32;;;;;;;19.27;11.15;;;17.30;99.90;;;;;;4997788;28;20026;-73
2023/05/22 04:51:58;;;;;;;18.60;11.98;;;17.40;99.90;;;;;;4997757;28;20090;-73
2023/05/22 04:54:23;;;;;;;19.60;10.65;;;17.30;99.90;;;;;;4997351;28;20022;-73
2023/05/22 04:56:50;;;;;;;17.02;10.20;;;17.40;99.90;;;;;;4996938;28;20146;-73
2023/05/22 04:59:18;;;;;;;19.95;11.68;;;17.40;99.90;;;;;;4998151;28;20027;-73
2023/05/22 05:01:44;;;;;;;21.40;10.70;;;17.40;99.90;;;;;;4997632;28;20026;-73
2023/05/22 05:04:10;;;;;;;17.80;11.13;;;17.40;99.90;;;;;;4996792;28;20036;-73
2023/05/22 05:06:36;;;;;;;20.10;11.80;;;17.30;99.90;;;;;;4996833;28;20031;-73
2023/05/22 05:09:03;;;;;;;19.15;11.35;;;17.30;99.90;;;;;;4996615;28;20056;-73
2023/05/22 05:11:29;;;;;;;19.05;11.93;;;17.30;99.90;;;;;;4996730;28;20042;-73
2023/05/22 05:13:54;;;;;;;19.60;11.20;;;17.30;99.90;;;;;;4997059;28;20041;-73
2023/05/22 05:16:20;;;;;;;25.25;11.30;;;17.30;99.90;;;;;;4997294;28;20058;-73
2023/05/22 05:18:46;;;;;;;23.92;10.95;;;17.30;99.90;;;;;;4996500;28;20030;-73
2023/05/22 05:21:11;;;;;;;18.17;10.88;;;17.20;99.90;;;;;;4997621;28;20026;-73
2023/05/22 05:23:37;;;;;;;18.52;11.65;;;17.40;99.90;;;;;;4996573;28;20093;-73
2023/05/22 05:26:02;;;;;;;23.52;11.35;;;17.30;99.90;;;;;;4996596;28;20030;-73
2023/05/22 05:28:28;;;;;;;18.02;10.82;;;17.40;99.90;;;;;;4997568;28;20026;-73
2023/05/22 05:30:54;;;;;;;19.42;11.20;;;17.40;99.90;;;;;;4999696;28;20019;-73
2023/05/22 05:33:19;;;;;;;18.63;11.55;;;17.50;99.90;;;;;;5001534;28;20030;-73
2023/05/22 05:35:45;;;;;;;17.15;10.63;;;17.40;99.90;;;;;;5000411;28;20142;-73
2023/05/22 05:38:10;;;;;;;23.83;11.82;;;17.50;99.90;;;;;;5000372;28;20022;-73
2023/05/22 05:40:36;;;;;;;18.73;11.38;;;17.60;99.90;;;;;;5000368;28;20041;-73
2023/05/22 05:43:02;;;;;;;20.38;11.43;;;17.60;99.90;;;;;;5000268;28;20045;-73
2023/05/22 05:45:28;;;;;;;17.42;11.20;;;17.70;99.90;;;;;;5000210;28;20026;-73
2023/05/22 05:47:53;;;;;;;21.95;11.93;;;17.70;99.90;;;;;;5000171;28;20038;-73
2023/05/22 05:50:19;;;;;;;20.02;11.38;;;17.80;99.90;;;;;;5000331;28;20214;-73
2023/05/22 05:52:45;;;;;;;18.30;11.77;;;17.80;99.90;;;;;;5000492;28;20069;-76
2023/05/22 05:55:11;;;;;;;19.17;11.40;;;17.80;99.90;;;;;;5000923;28;20029;-77
2023/05/22 05:57:36;;;;;;;17.30;11.30;;;17.80;99.90;;;;;;5000860;28;20061;-76
2023/05/22 06:00:04;;;;;;;19.70;11.63;;;17.80;99.90;;;;;;4999910;28;20034;-76
2023/05/22 06:02:30;;;;;;;19.67;11.55;;;17.80;99.90;;;;;;5001116;28;20061;-76
2023/05/22 06:04:55;;;;;;;18.95;11.00;;;17.80;99.90;;;;;;5000494;28;20050;-76
2023/05/22 06:07:21;;;;;;;20.85;11.05;;;17.90;99.90;;;;;;5000394;28;20030;-76
2023/05/22 06:09:46;;;;;;;19.88;11.25;;;18.00;99.90;;;;;;5000562;28;20030;-76
2023/05/22 06:12:12;;;;;;;19.40;11.98;;;18.10;99.90;;;;;;4999828;28;20030;-76
2023/05/22 06:14:39;;;;;;;25.02;11.35;;;18.20;99.90;;;;;;5000669;28;20038;-76
2023/05/22 06:17:07;;;;;;;18.95;10.75;;;18.30;99.90;;;;;;5000926;28;20025;-76
2023/05/22 06:19:33;;;;;;;19.30;11.18;;;18.40;99.90;;;;;;4999857;28;20056;-76
2023/05/22 06:21:59;;;;;;;16.65;10.65;;;18.40;99.90;;;;;;4999850;28;20089;-76
2023/05/22 06:24:24;;;;;;;18.30;10.90;;;18.40;99.90;;;;;;4999712;28;20033;-77
2023/05/22 06:26:50;;;;;;;17.42;11.63;;;18.50;99.90;;;;;;4999801;28;20019;-76
2023/05/22 06:29:16;;;;;;;19.67;10.70;;;18.60;99.90;;;;;;4999405;28;20113;-76
2023/05/22 06:31:41;;;;;;;17.48;10.75;;;18.70;99.90;;;;;;4999846;28;20197;-76
2023/05/22 06:34:07;;;;;;;18.40;10.90;;;18.70;99.90;;;;;;4999324;28;20022;-77
2023/05/22 06:36:33;;;;;;;17.58;10.60;;;18.70;99.90;;;;;;5000270;28;20031;-76
2023/05/22 06:38:59;;;;;;;20.55;11.55;;;18.80;99.90;;;;;;4999226;28;20057;-76
2023/05/22 06:41:25;;;;;;;18.13;11.70;;;18.90;99.90;;;;;;4999249;28;20066;-76
2023/05/22 06:43:50;;;;;;;17.48;10.75;;;19.00;99.90;;;;;;4999926;28;20037;-77
2023/05/22 06:46:16;;;;;;;20.40;12.02;;;19.00;99.90;;;;;;4999210;28;20113;-77
2023/05/22 06:48:41;;;;;;;16.73;10.20;;;19.10;99.90;;;;;;4998979;28;20030;-77
2023/05/22 06:51:10;;;;;;;17.70;11.38;;;19.10;99.90;;;;;;4999979;28;20069;-77
2023/05/22 06:53:36;;;;;;;27.10;12.18;;;19.20;99.90;;;;;;4999385;28;20038;-77
2023/05/22 06:56:02;;;;;;;20.67;10.80;;;19.30;99.90;;;;;;4999858;28;20022;-77
2023/05/22 06:58:27;;;;;;;19.25;10.52;;;19.40;99.90;;;;;;5000034;28;20022;-77
2023/05/22 07:00:54;;;;;;;20.30;11.27;;;19.50;99.90;;;;;;4998850;28;20027;-77
2023/05/22 07:03:20;;;;;;;19.23;10.95;;;19.50;99.90;;;;;;4998904;28;20022;-78
2023/05/22 07:05:45;;;;;;;18.80;10.65;;;19.50;99.90;;;;;;4999092;28;20077;-77
2023/05/22 07:08:11;;;;;;;18.30;11.27;;;19.50;99.90;;;;;;4999011;28;20098;-77
2023/05/22 07:10:37;;;;;;;16.10;10.52;;;19.50;99.90;;;;;;4998687;28;20035;-77
2023/05/22 07:13:02;;;;;;;15.73;9.98;;;19.60;99.90;;;;;;4998722;28;20030;-77
2023/05/22 07:15:28;;;;;;;15.13;10.75;;;19.70;99.90;;;;;;4998933;28;20021;-76
2023/05/22 07:17:54;;;;;;;15.73;10.63;;;19.70;99.90;;;;;;4999816;28;20113;-76
2023/05/22 07:20:20;;;;;;;16.58;11.18;;;19.90;99.90;;;;;;4999532;28;20182;-77
2023/05/22 07:22:45;;;;;;;18.27;11.00;;;20.00;99.90;;;;;;4998504;28;20052;-77
2023/05/22 07:25:11;;;;;;;18.55;10.68;;;20.10;99.90;;;;;;4998325;28;20027;-77
2023/05/22 07:27:36;;;;;;;17.80;11.07;;;20.20;99.90;;;;;;4999070;28;20057;-78
2023/05/22 07:30:02;;;;;;;16.98;10.27;;;20.20;99.90;;;;;;4998285;28;20022;-79
2023/05/22 07:32:28;;;;;;;16.70;10.05;;;20.30;99.90;;;;;;4998978;28;20022;-78
2023/05/22 07:34:53;;;;;;;14.30;9.75;;;20.40;99.90;;;;;;4998255;28;20018;-78
2023/05/22 07:37:19;;;;;;;16.38;9.57;;;20.50;99.90;;;;;;4998134;28;20023;-76
2023/05/22 07:39:45;;;;;;;16.40;10.45;;;20.70;99.90;;;;;;4998186;28;20069;-74
2023/05/22 07:42:13;;;;;;;13.75;8.90;;;20.80;99.90;;;;;;4998901;28;20049;-74
2023/05/22 07:44:39;;;;;;;13.85;9.70;;;20.80;99.90;;;;;;4998069;28;20026;-78
2023/05/22 07:47:05;;;;;;;14.20;10.52;;;20.90;99.90;;;;;;4998223;28;20042;-74
2023/05/22 07:49:31;;;;;;;14.10;10.05;;;21.00;99.90;;;;;;4997897;28;20022;-75
2023/05/22 07:51:57;;;;;;;14.45;9.55;;;21.10;99.90;;;;;;4997608;28;20077;-75
2023/05/22 07:54:22;;;;;;;15.23;9.05;;;21.10;99.90;;;;;;4997610;28;20035;-75
2023/05/22 07:56:48;;;;;;;14.95;9.88;;;21.30;99.90;;;;;;4998213;28;20073;-74
2023/05/22 07:59:14;;;;;;;14.20;9.73;;;21.40;99.90;;;;;;4997672;28;20061;-75
2023/05/22 08:01:40;;;;;;;15.20;10.07;;;21.40;99.90;;;;;;4997779;28;20077;-75
2023/05/22 08:04:06;;;;;;;16.70;10.77;;;21.50;99.90;;;;;;4998565;28;20026;-75
2023/05/22 08:06:33;;;;;;;25.20;11.15;;;21.50;99.90;;;;;;4997740;28;20053;-76
2023/05/22 08:08:59;;;;;;;13.98;9.65;;;21.60;99.90;;;;;;4997905;28;20034;-76
2023/05/22 08:11:25;;;;;;;21.95;11.07;;;21.60;99.90;;;;;;4998283;28;20026;-75
2023/05/22 08:13:50;;;;;;;18.23;10.82;;;21.60;99.90;;;;;;4997681;28;20036;-75
2023/05/22 08:16:16;;;;;;;20.45;10.98;;;21.60;99.90;;;;;;4997467;28;20058;-74
2023/05/22 08:18:41;;;;;;;19.73;11.52;;;21.70;99.90;;;;;;4997522;28;20034;-73
2023/05/22 08:21:07;;;;;;;18.65;10.68;;;21.80;99.90;;;;;;4997387;28;20054;-74
2023/05/22 08:23:35;;;;;;;23.45;10.82;;;21.90;99.90;;;;;;4998720;28;20038;-74
2023/05/22 08:26:00;;;;;;;18.23;10.50;;;21.90;99.90;;;;;;4997439;28;20027;-74
2023/05/22 08:28:26;;;;;;;14.70;10.15;;;21.90;99.90;;;;;;4997429;28;20029;-74
2023/05/22 08:30:53;;;;;;;17.00;9.82;;;21.90;99.90;;;;;;4998154;28;20049;-74
2023/05/22 08:33:18;;;;;;;20.73;10.27;;;21.90;99.90;;;;;;4998156;28;20105;-74
2023/05/22 08:35:44;;;;;;;17.10;9.77;;;22.00;99.90;;;;;;4997450;28;20121;-74
2023/05/22 08:38:10;;;;;;;14.23;9.65;;;22.00;99.90;;;;;;4997010;28;20026;-75
2023/05/22 08:40:37;;;;;;;15.40;10.15;;;22.20;99.90;;;;;;4996997;28;20022;-75
2023/05/22 08:43:04;;;;;;;13.90;9.02;;;22.20;99.90;;;;;;4997341;28;20030;-76
2023/05/22 08:45:32;;;;;;;17.05;10.38;;;22.20;99.90;;;;;;4997915;28;20081;-76
2023/05/22 08:47:59;;;;;;;14.75;9.35;;;22.30;99.90;;;;;;4997879;28;20018;-75
2023/05/22 08:50:25;;;;;;;16.48;9.75;;;22.40;99.90;;;;;;4997204;28;20018;-76
2023/05/22 08:52:54;;;;;;;16.38;9.68;;;22.40;99.90;;;;;;4996888;28;20129;-75
2023/05/22 08:55:19;;;;;;;17.27;9.43;;;22.70;99.90;;;;;;4997032;28;20038;-76
2023/05/22 08:57:46;;;;;;;19.35;10.55;;;22.70;99.90;;;;;;4997066;28;20076;-75
2023/05/22 09:00:12;;;;;;;19.52;9.75;;;22.70;99.90;;;;;;4997079;28;20019;-75
2023/05/22 09:02:38;;;;;;;23.73;11.93;;;23.00;99.90;;;;;;4997502;28;20029;-75
2023/05/22 09:05:08;;;;;;;24.35;10.93;;;23.40;99.90;;;;;;4996866;28;20088;-75
2023/05/22 09:07:34;;;;;;;15.50;9.38;;;23.60;99.90;;;;;;4996783;28;20026;-74
2023/05/22 09:10:00;;;;;;;17.90;9.15;;;23.80;99.90;;;;;;4997116;28;20022;-75
2023/05/22 09:12:26;;;;;;;16.20;9.30;;;23.90;99.90;;;;;;4997165;28;20022;-75
2023/05/22 09:14:52;;;;;;;12.75;9.13;;;23.80;99.90;;;;;;4997798;28;20034;-75
2023/05/22 09:17:20;;;;;;;12.32;9.20;;;23.60;99.90;;;;;;4997492;28;20109;-75
2023/05/22 09:19:46;;;;;;;12.63;8.27;;;23.80;99.90;;;;;;4996320;28;20031;-73
2023/05/22 09:22:12;;;;;;;13.82;9.10;;;24.20;99.90;;;;;;4996755;28;20022;-74
2023/05/22 09:24:41;;;;;;;13.15;8.43;;;24.10;99.90;;;;;;4997447;28;20041;-73
2023/05/22 09:27:07;;;;;;;11.68;8.55;;;23.80;99.90;;;;;;4996923;28;20027;-73
2023/05/22 09:29:47;;;;;;;15.98;9.10;;;23.80;99.90;;;;;;4997045;28;20019;-73
2023/05/22 09:32:14;;;;;;;15.15;9.02;;;24.20;99.90;;;;;;4997027;28;20085;-73
2023/05/22 09:34:39;;;;;;;12.65;9.32;;;24.20;99.90;;;;;;4997882;28;20026;-73
2023/05/22 09:37:05;;;;;;;13.25;8.27;;;24.40;99.90;;;;;;4997052;28;20023;-73
2023/05/22 09:39:44;;;;;;;15.07;9.10;;;24.60;99.90;;;;;;4997377;28;20097;-73
2023/05/22 09:42:13;;;;;;;14.55;8.88;;;24.50;99.90;;;;;;4996529;28;20022;-73
2023/05/22 09:44:41;;;;;;;11.77;8.93;;;24.70;99.90;;;;;;4997584;28;20018;-72
2023/05/22 09:47:07;;;;;;;14.40;9.77;;;25.00;99.90;;;;;;4996263;28;20023;-73
2023/05/22 09:49:50;;;;;;;15.48;8.75;;;24.90;99.90;;;;;;4996349;28;20073;-73
2023/05/22 09:52:17;;;;;;;15.00;9.13;;;25.00;99.90;;;;;;4997103;28;20061;-73
2023/05/22 09:54:54;;;;;;;12.35;8.50;;;25.10;99.90;;;;;;4997170;28;20030;-73
2023/05/22 09:57:21;;;;;;;14.50;9.05;;;25.00;99.90;;;;;;4996385;28;20041;-73
2023/05/22 09:59:53;;;;;;;15.30;9.07;;;25.00;99.90;;;;;;4996231;28;20022;-73
2023/05/22 10:02:22;;;;;;;12.52;8.88;;;25.00;99.90;;;;;;4996278;28;20026;-73
2023/05/22 10:04:49;;;;;;;15.68;8.30;;;25.20;99.90;;;;;;4996278;28;20022;-73
2023/05/22 10:07:18;;;;;;;12.82;9.25;;;25.30;99.90;;;;;;4996954;28;20030;-74
2023/05/22 10:09:46;;;;;;;13.75;9.30;;;25.10;99.90;;;;;;4996113;28;20027;-73
2023/05/22 10:12:15;;;;;;;17.27;9.30;;;25.30;99.90;;;;;;4996345;28;20109;-74
2023/05/22 10:14:41;;;;;;;14.15;9.40;;;25.50;99.90;;;;;;4997313;28;20027;-74
2023/05/22 10:17:07;;;;;;;13.23;8.55;;;25.80;99.90;;;;;;4999398;28;20029;-74
2023/05/22 10:19:35;;;;;;;13.32;9.43;;;25.90;99.90;;;;;;5000542;28;20045;-73
2023/05/22 10:22:02;;;;;;;15.02;9.80;;;26.10;99.90;;;;;;4999628;28;20022;-73
2023/05/22 10:24:28;;;;;;;14.98;8.98;;;26.20;99.90;;;;;;4999533;28;20029;-73
2023/05/22 10:26:54;;;;;;;16.50;10.07;;;26.20;99.90;;;;;;5000477;28;20026;-73
2023/05/22 10:29:26;;;;;;;12.35;8.70;;;26.50;99.90;;;;;;4999501;28;20027;-73
2023/05/22 10:32:12;;;;;;;17.38;9.73;;;26.60;99.90;;;;;;4999500;28;20054;-73
2023/05/22 10:34:56;;;;;;;16.05;9.35;;;26.90;99.90;;;;;;4999390;28;20032;-73
2023/05/22 10:37:39;;;;;;;14.07;9.95;;;26.90;99.90;;;;;;5000364;28;20023;-73
2023/05/22 10:40:09;;;;;;;13.50;9.52;;;27.20;99.90;;;;;;4999731;28;20057;-73
2023/05/22 10:42:36;;;;;;;18.58;9.60;;;27.10;99.90;;;;;;4999525;28;20022;-73
2023/05/22 10:45:05;;;;;;;13.27;9.52;;;27.20;99.90;;;;;;4999164;28;20023;-74
2023/05/22 10:47:33;;;;;;;15.13;9.95;;;27.10;99.90;;;;;;4999238;28;20099;-73
2023/05/22 10:50:09;;;;;;;12.38;9.57;;;27.30;99.90;;;;;;4999457;28;20022;-73
2023/05/22 10:52:36;;;;;;;15.82;10.00;;;27.30;99.90;;;;;;4999099;28;20022;-73
2023/05/22 10:55:09;;;;;;;10.52;9.23;;;27.10;99.90;;;;;;4999701;28;20026;-74
2023/05/22 10:57:38;;;;;;;11.82;9.80;;;27.30;99.90;;;;;;4999848;28;20121;-73
2023/05/22 11:00:10;;;;;;;12.23;9.25;;;27.50;99.90;;;;;;4998990;28;20084;-74
2023/05/22 11:02:41;;;;;;;18.17;9.80;;;27.60;99.90;;;;;;4998777;28;20084;-74
2023/05/22 11:05:24;;;;;;;14.68;9.43;;;27.90;99.90;;;;;;4998806;28;20033;-74
2023/05/22 11:07:49;;;;;;;11.70;9.98;;;28.40;99.90;;;;;;4999602;28;20026;-74
2023/05/22 11:10:25;;;;;;;15.02;10.05;;;28.40;99.90;;;;;;4999885;28;20038;-74
2023/05/22 11:13:02;;;;;;;11.10;9.43;;;28.60;99.90;;;;;;4999649;28;20101;-74
2023/05/22 11:15:33;;;;;;;12.85;9.68;;;28.70;99.90;;;;;;4999486;28;20026;-74
2023/05/22 11:18:04;;;;;;;12.63;10.13;;;28.60;99.90;;;;;;4999046;28;20053;-75
2023/05/22 11:20:36;;;;;;;12.43;9.15;;;28.60;99.90;;;;;;4999458;28;20038;-75
2023/05/22 11:23:06;;;;;;;17.80;10.15;;;28.80;99.90;;;;;;4998890;28;20054;-75
2023/05/22 11:25:36;;;;;;;13.45;9.50;;;29.10;99.90;;;;;;4998467;28;20032;-75
2023/05/22 11:28:06;;;;;;;12.85;8.98;;;29.40;99.90;;;;;;4997409;28;20030;-74
2023/05/22 11:30:33;;;;;;;12.48;9.25;;;29.50;99.90;;;;;;4999099;28;20029;-75
2023/05/22 11:32:59;;;;;;;14.13;9.55;;;29.30;99.90;;;;;;4999511;28;20028;-74
2023/05/22 11:35:26;;;;;;;12.27;9.07;;;29.60;99.90;;;;;;4998226;28;20061;-75
2023/05/22 11:37:52;;;;;;;14.15;9.85;;;29.60;99.90;;;;;;4998265;28;20081;-74
2023/05/22 11:40:25;;;;;;;11.90;9.85;;;29.80;99.90;;;;;;4998133;28;20057;-74
2023/05/22 11:42:55;;;;;;;15.20;9.48;;;29.90;99.90;;;;;;4998683;28;20034;-73
2023/05/22 11:45:21;;;;;;;11.73;9.30;;;30.00;99.90;;;;;;4998159;28;20058;-74
2023/05/22 11:47:47;;;;;;;12.43;9.27;;;30.90;99.90;;;;;;4998184;28;20289;-74
2023/05/22 11:50:13;;;;;;;13.48;9.77;;;31.50;99.90;;;;;;4998249;28;20209;-73
2023/05/22 11:52:40;;;;;;;17.35;9.98;;;30.80;99.90;;;;;;4997969;28;20033;-74
2023/05/22 11:55:07;;;;;;;11.77;8.73;;;30.70;99.90;;;;;;4997846;28;20023;-73
2023/05/22 11:57:36;;;;;;;12.38;8.70;;;31.50;99.90;;;;;;4998069;28;20092;-73
2023/05/22 12:00:07;;;;;;;13.38;9.43;;;31.50;99.90;;;;;;4998017;28;20033;-73
2023/05/22 12:02:32;;;;;;;12.68;9.13;;;31.20;99.90;;;;;;4998498;28;20026;-73
2023/05/22 12:04:58;;;;;;;9.38;8.07;;;31.00;99.90;;;;;;4998506;28;20022;-73
2023/05/22 12:07:25;;;;;;;12.25;7.57;;;30.90;99.90;;;;;;4997664;28;20034;-73
2023/05/22 12:09:51;;;;;;;9.10;7.90;;;30.70;99.90;;;;;;4997535;28;20026;-73
2023/05/22 12:12:17;;;;;;;11.07;8.40;;;30.20;99.90;;;;;;4997677;28;20023;-73
2023/05/22 12:14:46;;;;;;;9.65;6.82;;;30.20;99.90;;;;;;4998293;28;20029;-73
2023/05/22 12:17:12;;;;;;;10.30;7.63;;;30.10;99.90;;;;;;4997452;28;20109;-74
2023/05/22 12:19:46;;;;;;;15.13;9.10;;;29.70;99.90;;;;;;5021171;22;20017;-73
2023/05/22 12:22:12;;;;;;;14.07;8.98;;;30.20;99.90;;;;;;4997717;28;20054;-73
2023/05/22 12:24:39;;;;;;;13.80;8.60;;;30.90;99.90;;;;;;4998588;28;20025;-73
2023/05/22 12:27:09;;;;;;;11.10;8.85;;;31.60;99.90;;;;;;4997303;28;20027;-73
2023/05/22 12:29:35;;;;;;;14.05;8.82;;;32.00;99.80;;;;;;4997940;28;20026;-76
2023/05/22 12:32:09;;;;;;;10.93;9.23;;;31.60;99.20;;;;;;4997995;28;20026;-76